Earls Colne, United Kingdom
Current Conditions -  °F | °C
As of 9:50 AM on Wednesday 22 Oct 2014 (Local Time) from EGUW Reporting Station
Broken Clouds Broken Clouds  
Wind Chill:   Ceiling: 25000
Heat Index:   Visibility: 6mi
Dew Point:   Wind: 14mph
Humidity: 76%   Direction: 270°W
Pressure: 30.21"   Gusts: NA
Location:  51.93°N, 0.7°E
Report Text: EGUW 220850Z 27012KT 9999 SCT025 BKN250 09/05 Q1023 BLU NOSIG
Loading
Personal Weather Stations






























Interactive Weather Map
Tropical Storm Tracking
New forecast layout! Learn more

10-Day Weather Forecast

Advertisements
Track Severe Weather on mobile